createdAt,value
2019-01-25T00:00:33.540Z,37.08
2019-01-25T00:03:09.819Z,35.95
2019-01-25T00:05:34.008Z,34.80
2019-01-25T00:08:01.570Z,37.33
2019-01-25T00:10:29.153Z,34.23
2019-01-25T00:12:56.781Z,33.92
2019-01-25T00:15:24.378Z,36.53
2019-01-25T00:17:52.013Z,35.43
2019-01-25T00:20:19.560Z,35.43
2019-01-25T00:22:47.258Z,36.75
2019-01-25T00:25:15.110Z,35.52
2019-01-25T00:27:42.598Z,35.70
2019-01-25T00:30:11.990Z,34.55
2019-01-25T00:32:39.516Z,35.05
2019-01-25T00:35:07.076Z,34.80
2019-01-25T00:37:34.651Z,36.95
2019-01-25T00:40:06.210Z,36.40
2019-01-25T00:42:31.634Z,35.30
2019-01-25T00:44:59.168Z,35.52
2019-01-25T00:47:27.858Z,34.85
2019-01-25T00:49:55.479Z,37.15
2019-01-25T00:52:23.265Z,34.70
2019-01-25T00:54:50.773Z,34.98
2019-01-25T00:57:19.420Z,38.02
2019-01-25T00:59:46.952Z,33.73
2019-01-25T01:02:14.601Z,37.30
2019-01-25T01:04:42.473Z,40.67
2019-01-25T01:07:10.162Z,33.75
2019-01-25T01:09:37.641Z,36.10
2019-01-25T01:12:05.176Z,35.03
2019-01-25T01:14:33.010Z,33.45
2019-01-25T01:17:00.537Z,36.10
2019-01-25T01:19:28.069Z,35.50
2019-01-25T01:21:55.598Z,36.98
2019-01-25T01:24:23.076Z,35.17
2019-01-25T01:26:50.614Z,34.20
2019-01-25T01:29:18.183Z,35.98
2019-01-25T01:31:45.792Z,34.90
2019-01-25T01:34:13.492Z,36.63
2019-01-25T01:36:41.049Z,35.65
2019-01-25T01:39:08.464Z,37.73
2019-01-25T01:41:35.966Z,39.73
2019-01-25T01:44:03.798Z,35.78
2019-01-25T01:46:31.200Z,35.10
2019-01-25T01:48:58.746Z,33.05
2019-01-25T01:51:26.423Z,36.93
2019-01-25T01:53:53.971Z,33.50
2019-01-25T01:56:21.485Z,39.83
2019-01-25T01:58:48.948Z,38.28
2019-01-25T02:01:16.648Z,36.13
2019-01-25T02:03:44.273Z,35.88
2019-01-25T02:06:11.806Z,39.55
2019-01-25T02:08:39.330Z,34.90
2019-01-25T02:11:06.748Z,37.45
2019-01-25T02:13:34.460Z,35.95
2019-01-25T02:16:01.944Z,35.83
2019-01-25T02:18:29.550Z,34.33
2019-01-25T02:20:57.010Z,37.25
2019-01-25T02:23:24.532Z,34.30
2019-01-25T02:25:52.129Z,37.20
2019-01-25T02:28:21.276Z,36.15
2019-01-25T02:30:48.832Z,39.60
2019-01-25T02:33:16.426Z,37.20
2019-01-25T02:35:44.984Z,38.20
2019-01-25T02:38:12.649Z,34.80
2019-01-25T02:40:40.467Z,37.35
2019-01-25T02:43:08.026Z,35.98
2019-01-25T02:45:35.553Z,35.23
2019-01-25T02:48:03.469Z,36.50
2019-01-25T02:50:30.991Z,36.05
2019-01-25T02:53:03.740Z,36.15
2019-01-25T02:55:28.028Z,36.17
2019-01-25T02:57:55.805Z,35.52
2019-01-25T03:00:24.756Z,35.20
2019-01-25T03:02:53.795Z,34.90
2019-01-25T03:05:22.015Z,37.70
2019-01-25T03:07:49.734Z,33.30
2019-01-25T03:10:18.509Z,35.75
2019-01-25T03:12:46.085Z,36.10
2019-01-25T03:15:16.072Z,37.15
2019-01-25T03:17:44.533Z,35.65
2019-01-25T03:20:12.003Z,37.23
2019-01-25T03:22:40.886Z,40.00
2019-01-25T03:25:10.801Z,34.33
2019-01-25T03:27:38.318Z,35.33
2019-01-25T03:30:07.400Z,39.10
2019-01-25T03:32:35.021Z,36.60
2019-01-25T03:35:02.984Z,37.38
2019-01-25T03:37:30.667Z,35.78
2019-01-25T03:39:58.249Z,36.42
2019-01-25T03:42:26.887Z,36.75
2019-01-25T03:44:54.506Z,35.80
2019-01-25T03:47:22.061Z,36.00
2019-01-25T03:49:49.622Z,36.77
2019-01-25T03:52:17.145Z,35.23
2019-01-25T03:54:44.554Z,37.90
2019-01-25T03:57:12.253Z,36.83
2019-01-25T03:59:39.963Z,33.70
2019-01-25T04:02:07.527Z,37.33
2019-01-25T04:04:35.145Z,36.53
2019-01-25T04:07:02.551Z,36.33
2019-01-25T04:09:30.024Z,37.85
2019-01-25T04:11:57.444Z,36.55
2019-01-25T04:14:24.909Z,34.25
2019-01-25T04:16:52.403Z,35.28
2019-01-25T04:19:19.942Z,35.35
2019-01-25T04:21:47.520Z,37.60
2019-01-25T04:24:15.018Z,37.75
2019-01-25T04:26:42.523Z,35.73
2019-01-25T04:29:10.114Z,37.75
2019-01-25T04:31:37.673Z,37.95
2019-01-25T04:34:05.258Z,36.65
2019-01-25T04:36:32.948Z,38.17
2019-01-25T04:39:00.433Z,39.23
2019-01-25T04:41:27.840Z,36.55
2019-01-25T04:43:55.294Z,36.98
2019-01-25T04:46:22.792Z,36.63
2019-01-25T04:48:50.463Z,36.85
2019-01-25T04:51:17.942Z,38.63
2019-01-25T04:53:45.370Z,37.42
2019-01-25T04:56:13.015Z,36.48
2019-01-25T04:58:40.689Z,35.25
2019-01-25T05:01:09.450Z,38.33
2019-01-25T05:03:37.208Z,36.90
2019-01-25T05:06:06.534Z,38.53
2019-01-25T05:08:35.137Z,36.45
2019-01-25T05:11:03.170Z,36.33
2019-01-25T05:13:31.695Z,34.70
2019-01-25T05:15:59.432Z,37.65
2019-01-25T05:18:27.063Z,38.48
2019-01-25T05:20:54.621Z,37.75
2019-01-25T05:23:22.233Z,38.70
2019-01-25T05:25:49.834Z,38.35
2019-01-25T05:28:20.278Z,36.70
2019-01-25T05:31:01.578Z,38.15
2019-01-25T05:33:29.286Z,36.85
2019-01-25T05:35:56.759Z,41.10
2019-01-25T05:38:24.290Z,39.83
2019-01-25T05:40:51.851Z,40.43
2019-01-25T05:43:19.542Z,38.10
2019-01-25T05:45:47.017Z,36.53
2019-01-25T05:48:14.658Z,39.53
2019-01-25T05:50:42.321Z,37.38
2019-01-25T05:53:09.815Z,36.42
2019-01-25T05:55:37.815Z,35.00
2019-01-25T05:58:06.126Z,38.38
2019-01-25T06:00:36.526Z,39.58
2019-01-25T06:03:14.488Z,37.53
2019-01-25T06:05:46.513Z,36.03
2019-01-25T06:08:30.437Z,37.50
2019-01-25T06:11:03.250Z,38.63
2019-01-25T06:13:30.800Z,39.25
2019-01-25T06:15:58.742Z,38.40
2019-01-25T06:18:26.250Z,40.83
2019-01-25T06:20:54.919Z,41.20
2019-01-25T06:23:22.640Z,37.88
2019-01-25T06:25:54.592Z,39.15
2019-01-25T06:28:22.089Z,41.45
2019-01-25T06:30:49.759Z,40.05
2019-01-25T06:33:17.343Z,39.27
2019-01-25T06:35:45.146Z,39.45
2019-01-25T06:38:12.768Z,37.93
2019-01-25T06:40:41.216Z,40.08
2019-01-25T06:43:08.923Z,40.15
2019-01-25T06:45:36.433Z,38.78
2019-01-25T06:48:04.170Z,40.38
2019-01-25T06:50:32.787Z,39.95
2019-01-25T06:53:00.734Z,42.50
2019-01-25T06:55:29.047Z,39.78
2019-01-25T06:58:14.102Z,40.28
2019-01-25T07:00:47.171Z,38.75
2019-01-25T07:03:14.731Z,40.90
2019-01-25T07:05:42.261Z,39.15
2019-01-25T07:08:15.294Z,39.27
2019-01-25T07:10:42.946Z,40.70
2019-01-25T07:13:10.452Z,41.13
2019-01-25T07:15:38.070Z,39.85
2019-01-25T07:18:05.583Z,41.42
2019-01-25T07:20:34.035Z,41.13
2019-01-25T07:23:01.596Z,42.30
2019-01-25T07:25:29.183Z,39.18
2019-01-25T07:27:56.655Z,41.83
2019-01-25T07:30:24.117Z,41.80
2019-01-25T07:32:51.707Z,39.18
2019-01-25T07:35:19.263Z,42.93
2019-01-25T07:37:46.932Z,41.42
2019-01-25T07:40:14.436Z,39.35
2019-01-25T07:42:41.901Z,38.67
2019-01-25T07:45:09.503Z,37.10
2019-01-25T07:47:37.039Z,41.37
2019-01-25T07:50:05.120Z,42.13
2019-01-25T07:52:32.786Z,42.23
2019-01-25T07:55:00.445Z,41.65
2019-01-25T07:57:28.126Z,37.58
2019-01-25T07:59:55.719Z,40.40
2019-01-25T08:02:23.612Z,41.20
2019-01-25T08:04:51.075Z,41.83
2019-01-25T08:07:18.891Z,43.78
2019-01-25T08:09:46.616Z,40.33
2019-01-25T08:12:14.276Z,39.35
2019-01-25T08:14:41.838Z,40.63
2019-01-25T08:17:09.228Z,39.10
2019-01-25T08:19:37.998Z,40.88
2019-01-25T08:22:05.658Z,41.53
2019-01-25T08:24:33.286Z,39.33
2019-01-25T08:27:01.975Z,41.00
2019-01-25T08:29:29.647Z,41.50
2019-01-25T08:31:57.373Z,43.33
2019-01-25T08:34:24.997Z,41.35
2019-01-25T08:36:52.521Z,40.38
2019-01-25T08:39:20.244Z,41.13
2019-01-25T08:41:47.740Z,41.80
2019-01-25T08:44:15.353Z,41.73
2019-01-25T08:46:43.008Z,40.70
2019-01-25T08:49:11.608Z,41.55
2019-01-25T08:51:39.411Z,39.18
2019-01-25T08:54:07.034Z,40.65
2019-01-25T08:56:34.803Z,40.38
2019-01-25T08:59:02.395Z,42.17
2019-01-25T09:01:49.654Z,40.28
2019-01-25T09:04:18.590Z,38.55
2019-01-25T09:06:47.564Z,39.42
2019-01-25T09:09:15.255Z,41.63
2019-01-25T09:11:43.132Z,39.60
2019-01-25T09:14:10.709Z,43.55
2019-01-25T09:16:39.355Z,40.35
2019-01-25T09:19:06.857Z,41.75
2019-01-25T09:21:34.491Z,39.92
2019-01-25T09:24:02.193Z,39.75
2019-01-25T09:26:29.835Z,42.62
2019-01-25T09:28:57.410Z,42.62
2019-01-25T09:31:24.784Z,39.30
2019-01-25T09:33:52.293Z,39.67
2019-01-25T09:36:19.872Z,41.25
2019-01-25T09:38:47.957Z,39.18
2019-01-25T09:41:15.473Z,40.55
2019-01-25T09:43:43.094Z,38.85
2019-01-25T09:46:10.792Z,36.75
2019-01-25T09:48:38.309Z,39.45
2019-01-25T09:51:06.019Z,37.30
2019-01-25T09:53:33.652Z,39.70
2019-01-25T09:56:01.222Z,38.73
2019-01-25T09:58:28.682Z,38.40
2019-01-25T10:01:02.610Z,35.88
2019-01-25T10:03:30.134Z,39.27
2019-01-25T10:05:57.711Z,37.73
2019-01-25T10:08:25.401Z,39.18
2019-01-25T10:10:53.079Z,37.23
2019-01-25T10:13:20.656Z,38.13
2019-01-25T10:15:48.306Z,36.13
2019-01-25T10:18:15.818Z,36.42
2019-01-25T10:20:43.462Z,36.70
2019-01-25T10:23:11.133Z,34.55
2019-01-25T10:25:38.750Z,37.85
2019-01-25T10:28:06.349Z,34.88
2019-01-25T10:30:33.950Z,34.23
2019-01-25T10:33:01.528Z,32.40
2019-01-25T10:35:29.094Z,35.23
2019-01-25T10:37:57.559Z,39.50
2019-01-25T10:40:24.978Z,31.77
2019-01-25T10:42:53.398Z,31.55
2019-01-25T10:48:12.146Z,29.90
2019-01-25T10:50:39.923Z,32.20
2019-01-25T10:53:08.466Z,29.73
2019-01-25T10:55:36.208Z,32.98
2019-01-25T10:58:04.752Z,30.85
2019-01-25T11:00:32.220Z,28.62
2019-01-25T11:02:59.873Z,30.40
2019-01-25T11:05:27.831Z,31.82
2019-01-25T11:07:55.288Z,34.15
2019-01-25T11:10:22.809Z,33.20
2019-01-25T11:12:50.294Z,35.43
2019-01-25T11:15:19.845Z,33.25
2019-01-25T11:17:48.573Z,34.67
2019-01-25T11:20:17.984Z,37.23
2019-01-25T11:22:45.373Z,35.90
2019-01-25T11:25:16.092Z,35.73
2019-01-25T11:27:43.626Z,33.50
2019-01-25T11:30:12.241Z,38.00
2019-01-25T11:32:39.711Z,33.03
2019-01-25T11:35:07.232Z,35.48
2019-01-25T11:37:35.024Z,38.20
2019-01-25T11:40:04.552Z,34.07
2019-01-25T11:42:32.130Z,32.63
2019-01-25T11:44:59.643Z,34.90
2019-01-25T11:47:27.690Z,33.10
2019-01-25T11:49:55.152Z,35.85
2019-01-25T11:52:25.152Z,33.73
2019-01-25T11:54:52.049Z,33.97
2019-01-25T11:57:20.821Z,33.67
2019-01-25T11:59:48.495Z,36.37
2019-01-25T12:02:20.856Z,34.43
2019-01-25T12:04:45.840Z,36.77
2019-01-25T12:07:13.301Z,36.67
2019-01-25T12:09:40.820Z,34.53
2019-01-25T12:12:08.334Z,35.20
2019-01-25T12:14:35.859Z,34.43
2019-01-25T12:17:03.766Z,34.23
2019-01-25T12:19:31.276Z,36.87
2019-01-25T12:21:58.862Z,35.50
2019-01-25T12:24:26.476Z,33.77
2019-01-25T12:26:54.256Z,32.70
2019-01-25T12:29:21.869Z,36.37
2019-01-25T12:31:49.526Z,36.87
2019-01-25T12:34:17.092Z,35.43
2019-01-25T12:36:44.643Z,32.97
2019-01-25T12:39:12.318Z,36.90
2019-01-25T12:41:40.090Z,36.67
2019-01-25T12:44:07.708Z,36.10
2019-01-25T12:46:35.591Z,36.20
2019-01-25T12:49:03.391Z,36.47
2019-01-25T12:51:39.625Z,35.33
2019-01-25T12:54:07.110Z,36.17
2019-01-25T12:56:34.778Z,35.90
2019-01-25T12:59:02.734Z,34.93
2019-01-25T13:01:34.929Z,32.77
2019-01-25T13:03:59.735Z,36.47
2019-01-25T13:06:28.180Z,36.87
2019-01-25T13:08:55.674Z,37.90
2019-01-25T13:11:23.318Z,36.97
2019-01-25T13:13:50.883Z,35.20
2019-01-25T13:16:18.451Z,35.10
2019-01-25T13:18:45.898Z,34.63
2019-01-25T13:21:13.495Z,35.43
2019-01-25T13:23:41.037Z,36.23
2019-01-25T13:26:08.490Z,35.47
2019-01-25T13:28:36.083Z,36.40
2019-01-25T13:31:03.958Z,34.63
2019-01-25T13:33:31.507Z,37.70
2019-01-25T13:35:58.914Z,34.17
2019-01-25T13:38:26.276Z,33.90
2019-01-25T13:40:53.692Z,36.23
2019-01-25T13:43:21.432Z,35.60
2019-01-25T13:45:48.968Z,33.03
2019-01-25T13:48:16.417Z,35.27
2019-01-25T13:50:44.114Z,32.80
2019-01-25T13:53:11.534Z,37.10
2019-01-25T13:55:39.315Z,34.00
2019-01-25T13:58:11.915Z,33.13
2019-01-25T14:00:39.497Z,33.90
2019-01-25T14:03:07.038Z,31.30
2019-01-25T14:05:34.595Z,30.60
2019-01-25T14:08:02.446Z,31.33
2019-01-25T14:10:32.604Z,31.63
2019-01-25T14:13:00.230Z,29.13
2019-01-25T14:15:28.774Z,28.20
2019-01-25T14:17:56.447Z,29.47
2019-01-25T14:20:25.820Z,29.03
2019-01-25T14:22:53.549Z,28.97
2019-01-25T14:25:21.166Z,27.00
2019-01-25T14:27:49.438Z,28.43
2019-01-25T14:30:38.214Z,29.53
2019-01-25T14:33:06.040Z,32.57
2019-01-25T14:35:33.438Z,32.40
2019-01-25T14:38:01.119Z,29.47
2019-01-25T14:40:28.778Z,29.00
2019-01-25T14:42:56.556Z,28.67
2019-01-25T14:45:24.132Z,30.50
2019-01-25T14:47:51.663Z,30.90
2019-01-25T14:50:20.788Z,27.70
2019-01-25T14:52:48.365Z,29.47
2019-01-25T14:55:18.134Z,29.47
2019-01-25T14:57:45.714Z,26.45
2019-01-25T15:00:14.236Z,27.47
2019-01-25T15:02:45.174Z,28.20
2019-01-25T15:05:15.578Z,29.67
2019-01-25T15:07:43.243Z,26.27
2019-01-25T15:10:13.812Z,28.27
2019-01-25T15:12:41.395Z,28.13
2019-01-25T15:15:11.100Z,28.75
2019-01-25T15:17:39.045Z,30.27
2019-01-25T15:20:21.188Z,29.47
2019-01-25T15:23:01.948Z,29.02
2019-01-25T15:25:31.919Z,30.17
2019-01-25T15:27:59.530Z,27.75
2019-01-25T15:30:28.802Z,29.35
2019-01-25T15:32:56.382Z,27.55
2019-01-25T15:35:23.942Z,30.63
2019-01-25T15:37:51.760Z,29.17
2019-01-25T15:40:19.721Z,29.98
2019-01-25T15:43:07.581Z,29.15
2019-01-25T15:45:35.155Z,31.65
2019-01-25T15:48:03.300Z,29.90
2019-01-25T15:50:32.040Z,28.63
2019-01-25T15:53:02.619Z,31.60
2019-01-25T15:55:49.695Z,31.63
2019-01-25T15:58:17.286Z,29.70
2019-01-25T16:00:47.873Z,28.80
2019-01-25T16:03:15.528Z,30.50
2019-01-25T16:05:43.304Z,30.50
2019-01-25T16:08:11.076Z,26.90
2019-01-25T16:10:49.209Z,29.20
2019-01-25T16:13:16.784Z,30.43
2019-01-25T16:15:44.328Z,26.70
2019-01-25T16:18:13.968Z,28.05
2019-01-25T16:20:42.433Z,27.48
2019-01-25T16:23:10.132Z,25.60
2019-01-25T16:25:37.863Z,25.70
2019-01-25T16:28:05.486Z,24.80
2019-01-25T16:30:37.665Z,25.08
2019-01-25T16:33:05.347Z,21.68
2019-01-25T16:35:32.904Z,22.65
2019-01-25T16:38:00.827Z,20.80
2019-01-25T16:40:28.943Z,20.33
2019-01-25T16:42:56.544Z,21.20
2019-01-25T16:45:26.635Z,21.80
2019-01-25T16:47:56.219Z,20.52
2019-01-25T16:50:24.124Z,21.02
2019-01-25T16:52:51.919Z,18.07
2019-01-25T16:55:19.543Z,20.50
2019-01-25T16:57:49.152Z,18.90
2019-01-25T17:00:22.496Z,19.75
2019-01-25T17:02:50.090Z,19.10
2019-01-25T17:05:17.881Z,18.27
2019-01-25T17:07:45.561Z,19.23
2019-01-25T17:10:14.600Z,18.87
2019-01-25T17:12:42.383Z,18.67
2019-01-25T17:15:13.253Z,20.07
2019-01-25T17:17:40.823Z,19.73
2019-01-25T17:20:20.086Z,19.80
2019-01-25T17:22:43.807Z,22.17
2019-01-25T17:25:11.887Z,19.90
2019-01-25T17:27:39.872Z,19.07
2019-01-25T17:30:15.303Z,18.92
2019-01-25T17:32:42.923Z,18.45
2019-01-25T17:35:10.936Z,22.62
2019-01-25T17:37:40.753Z,19.57
2019-01-25T17:40:11.992Z,18.70
2019-01-25T17:42:39.520Z,18.50
2019-01-25T17:45:08.079Z,22.10
2019-01-25T17:47:35.491Z,20.85
2019-01-25T17:50:04.110Z,21.67
2019-01-25T17:52:31.738Z,19.55
2019-01-25T17:54:59.251Z,25.67
2019-01-25T17:57:26.985Z,23.15
2019-01-25T17:59:54.917Z,23.27
2019-01-25T18:02:22.982Z,23.42
2019-01-25T18:04:53.347Z,22.40
2019-01-25T18:07:20.878Z,22.03
2019-01-25T18:09:48.321Z,22.50
2019-01-25T18:12:15.986Z,23.45
2019-01-25T18:14:49.197Z,26.48
2019-01-25T18:17:13.894Z,22.70
2019-01-25T18:19:41.446Z,22.77
2019-01-25T18:22:09.137Z,23.10
2019-01-25T18:24:36.758Z,25.60
2019-01-25T18:27:04.335Z,26.50
2019-01-25T18:29:42.202Z,25.70
2019-01-25T18:32:10.255Z,25.97
2019-01-25T18:34:38.162Z,24.40
2019-01-25T18:37:05.748Z,26.10
2019-01-25T18:39:33.572Z,24.02
2019-01-25T18:42:01.164Z,24.73
2019-01-25T18:44:28.829Z,28.37
2019-01-25T18:47:01.558Z,25.87
2019-01-25T18:49:29.199Z,29.00
2019-01-25T18:51:56.720Z,28.30
2019-01-25T18:54:24.238Z,26.87
2019-01-25T18:56:52.790Z,29.07
2019-01-25T18:59:20.275Z,29.32
2019-01-25T19:01:47.732Z,30.50
2019-01-25T19:04:15.333Z,34.30
2019-01-25T19:06:43.339Z,32.13
2019-01-25T19:09:11.531Z,32.73
2019-01-25T19:11:39.301Z,29.60
2019-01-25T19:14:06.861Z,30.02
2019-01-25T19:16:34.293Z,30.77
2019-01-25T19:19:01.870Z,30.47
2019-01-25T19:21:29.551Z,33.80
2019-01-25T19:23:57.496Z,33.87
2019-01-25T19:26:25.039Z,34.50
2019-01-25T19:28:52.569Z,32.53
2019-01-25T19:31:20.176Z,34.33
2019-01-25T19:33:47.710Z,35.07
2019-01-25T19:36:15.324Z,34.93
2019-01-25T19:38:42.891Z,33.30
2019-01-25T19:41:13.811Z,33.23
2019-01-25T19:43:41.505Z,34.37
2019-01-25T19:46:09.095Z,33.42
2019-01-25T19:48:36.802Z,34.17
2019-01-25T19:51:04.669Z,35.25
2019-01-25T19:53:32.683Z,33.90
2019-01-25T19:56:00.131Z,35.67
2019-01-25T19:58:27.819Z,37.93
2019-01-25T20:00:55.818Z,33.60
2019-01-25T20:03:23.378Z,34.53
2019-01-25T20:05:50.774Z,33.40
2019-01-25T20:08:18.274Z,32.17
2019-01-25T20:10:46.050Z,30.93
2019-01-25T20:13:13.838Z,30.83
2019-01-25T20:15:41.651Z,30.30
2019-01-25T20:18:11.121Z,31.77
2019-01-25T20:20:39.240Z,29.67
2019-01-25T20:23:07.104Z,29.30
2019-01-25T20:25:34.738Z,31.37
2019-01-25T20:28:03.327Z,29.60
2019-01-25T20:30:31.247Z,29.27
2019-01-25T20:33:00.454Z,30.70
2019-01-25T20:35:31.277Z,32.13
2019-01-25T20:37:59.001Z,30.70
2019-01-25T20:40:26.908Z,30.93
2019-01-25T20:42:57.235Z,30.70
2019-01-25T20:45:32.651Z,31.40
2019-01-25T20:48:00.095Z,30.27
2019-01-25T20:50:33.502Z,31.30
2019-01-25T20:53:01.216Z,32.23
2019-01-25T20:55:29.381Z,32.77
2019-01-25T20:57:58.223Z,30.80
2019-01-25T21:00:29.061Z,31.60
2019-01-25T21:02:56.814Z,32.63
2019-01-25T21:05:25.801Z,33.03
2019-01-25T21:07:53.356Z,30.60
2019-01-25T21:10:21.761Z,31.40
2019-01-25T21:12:49.349Z,30.30
2019-01-25T21:15:18.719Z,30.47
2019-01-25T21:17:46.273Z,30.43
2019-01-25T21:20:19.550Z,29.80
2019-01-25T21:22:47.025Z,30.27
2019-01-25T21:25:14.843Z,31.60
2019-01-25T21:27:42.447Z,31.80
2019-01-25T21:30:13.490Z,31.40
2019-01-25T21:32:41.348Z,31.20
2019-01-25T21:35:09.190Z,30.37
2019-01-25T21:37:38.727Z,31.17
2019-01-25T21:40:19.689Z,33.63
2019-01-25T21:43:07.610Z,27.07
2019-01-25T21:46:27.007Z,29.13
2019-01-25T21:49:32.600Z,26.33
2019-01-25T21:52:16.629Z,26.60
2019-01-25T21:55:11.314Z,27.10
2019-01-25T21:57:53.175Z,28.17
2019-01-25T22:01:04.118Z,26.37
2019-01-25T22:03:32.294Z,25.83
2019-01-25T22:05:59.815Z,25.50
2019-01-25T22:08:45.828Z,25.37
2019-01-25T22:11:45.589Z,24.17
2019-01-25T22:14:28.475Z,24.83
2019-01-25T22:20:42.279Z,23.57
2019-01-25T22:23:10.112Z,20.70
2019-01-25T22:26:06.257Z,22.77
2019-01-25T22:28:33.851Z,19.50
2019-01-25T22:31:01.526Z,20.30
2019-01-25T22:33:29.947Z,20.10
2019-01-25T22:35:58.186Z,20.20
2019-01-25T22:38:29.321Z,18.73
2019-01-25T22:40:59.056Z,20.27
2019-01-25T22:43:29.945Z,19.60
2019-01-25T22:45:59.017Z,19.10
2019-01-25T22:48:46.432Z,19.17
2019-01-25T22:51:25.824Z,18.90
2019-01-25T22:53:54.999Z,19.10
2019-01-25T22:56:42.318Z,17.87
2019-01-25T22:59:10.465Z,17.77
2019-01-25T23:01:40.035Z,18.27
2019-01-25T23:04:47.070Z,18.23
2019-01-25T23:07:24.649Z,18.43
2019-01-25T23:10:17.019Z,20.10
2019-01-25T23:12:44.667Z,17.00
2019-01-25T23:15:17.687Z,19.20
2019-01-25T23:17:47.883Z,17.30
2019-01-25T23:20:15.904Z,18.00
2019-01-25T23:22:43.408Z,18.50
2019-01-25T23:25:13.401Z,18.00
2019-01-25T23:27:40.924Z,18.73
2019-01-25T23:30:16.468Z,18.40
2019-01-25T23:32:44.048Z,19.60
2019-01-25T23:35:11.555Z,20.13
2019-01-25T23:37:39.023Z,18.90
2019-01-25T23:40:10.159Z,18.30
2019-01-25T23:42:37.683Z,18.20
2019-01-25T23:45:06.569Z,20.03
2019-01-25T23:47:34.099Z,20.23
2019-01-25T23:50:21.142Z,19.10
2019-01-25T23:52:48.606Z,18.10
2019-01-25T23:55:16.354Z,19.60
2019-01-25T23:57:44.545Z,18.53
